JBU808 TIST-TJSJ
Flight info
| Callsign | JBU808 |
|---|---|
| Flight time | N/A |
| Altitude | 12000 |
| Route | PALCO7 PALCO RTE6 CHAKA DCT SNGRA DCT REKUA |
| Aircraft | A320/M-SDE3FGHIRWY/LB1 |
Departure
| Time | 2026-05-06 02:26 |
|---|---|
| Airport | Cyril E. King Airport (TIST) |
Arrival
| Time | N/A |
|---|---|
| Airport | Luis Munoz Marin International Airport (TJSJ) |
| Time | Latitude | Longitude | Altitude | Speed | Heading |
|---|---|---|---|---|---|
| 2026-05-06 01:58 | 18.33574 | -64.97255 | 32 ft | 0 kts | 178° |
| 2026-05-06 02:15 | 18.33584 | -64.97255 | 30 ft | 4 kts | 178° |
| 2026-05-06 02:16 | 18.33611 | -64.97256 | 32 ft | 4 kts | 181° |
| 2026-05-06 02:16 | 18.33637 | -64.97253 | 32 ft | 4 kts | 206° |
| 2026-05-06 02:16 | 18.33649 | -64.97239 | 31 ft | 3 kts | 265° |
| 2026-05-06 02:16 | 18.33650 | -64.97218 | 32 ft | 0 kts | 266° |
| 2026-05-06 02:19 | 18.33649 | -64.97231 | 32 ft | 3 kts | 266° |
| 2026-05-06 02:19 | 18.33647 | -64.97265 | 32 ft | 6 kts | 266° |
| 2026-05-06 02:20 | 18.33638 | -64.97389 | 32 ft | 11 kts | 264° |
| 2026-05-06 02:20 | 18.33627 | -64.97478 | 32 ft | 13 kts | 261° |
| 2026-05-06 02:20 | 18.33612 | -64.97582 | 31 ft | 16 kts | 261° |
| 2026-05-06 02:21 | 18.33603 | -64.97707 | 32 ft | 18 kts | 270° |
| 2026-05-06 02:21 | 18.33599 | -64.97839 | 32 ft | 18 kts | 267° |
| 2026-05-06 02:21 | 18.33593 | -64.97973 | 32 ft | 19 kts | 267° |
| 2026-05-06 02:21 | 18.33587 | -64.98091 | 32 ft | 19 kts | 267° |
| 2026-05-06 02:22 | 18.33584 | -64.98185 | 32 ft | 19 kts | 268° |
| 2026-05-06 02:22 | 18.33588 | -64.98304 | 32 ft | 11 kts | 291° |
| 2026-05-06 02:22 | 18.33600 | -64.98319 | 32 ft | 0 kts | 322° |
| 2026-05-06 02:24 | 18.33602 | -64.98321 | 32 ft | 1 kts | 324° |
| 2026-05-06 02:24 | 18.33620 | -64.98327 | 32 ft | 4 kts | 347° |
| 2026-05-06 02:24 | 18.33660 | -64.98328 | 29 ft | 9 kts | 8° |
| 2026-05-06 02:25 | 18.33690 | -64.98275 | 29 ft | 0 kts | 89° |
| 2026-05-06 02:25 | 18.33692 | -64.98214 | 30 ft | 36 kts | 87° |
| 2026-05-06 02:25 | 18.33715 | -64.97691 | 37 ft | 103 kts | 87° |
| 2026-05-06 02:25 | 18.33761 | -64.96760 | 166 ft | 138 kts | 86° |
| 2026-05-06 02:26 | 18.33768 | -64.95780 | 721 ft | 134 kts | 100° |
| 2026-05-06 02:26 | 18.33437 | -64.94855 | 1193 ft | 140 kts | 122° |
| 2026-05-06 02:26 | 18.32679 | -64.94065 | 1398 ft | 170 kts | 148° |
| 2026-05-06 02:26 | 18.31463 | -64.93720 | 1697 ft | 199 kts | 177° |
| 2026-05-06 02:27 | 18.30071 | -64.94234 | 2010 ft | 237 kts | 215° |
| 2026-05-06 02:27 | 18.28922 | -64.95630 | 2521 ft | 265 kts | 232° |
| 2026-05-06 02:27 | 18.27866 | -64.97257 | 3408 ft | 272 kts | 234° |
| 2026-05-06 02:27 | 18.26828 | -64.98943 | 4352 ft | 277 kts | 235° |
| 2026-05-06 02:28 | 18.25987 | -65.00787 | 5209 ft | 286 kts | 257° |
| 2026-05-06 02:28 | 18.26019 | -65.02895 | 6075 ft | 292 kts | 279° |
| 2026-05-06 02:28 | 18.26357 | -65.05012 | 6946 ft | 295 kts | 279° |
| 2026-05-06 02:28 | 18.26695 | -65.07146 | 7798 ft | 296 kts | 279° |
| 2026-05-06 02:29 | 18.27024 | -65.09262 | 8655 ft | 298 kts | 279° |
| 2026-05-06 02:29 | 18.27354 | -65.11422 | 9479 ft | 301 kts | 279° |
| 2026-05-06 02:29 | 18.27684 | -65.13612 | 10211 ft | 307 kts | 279° |
| 2026-05-06 02:29 | 18.28026 | -65.15912 | 10450 ft | 331 kts | 278° |
| 2026-05-06 02:30 | 18.28393 | -65.18384 | 10687 ft | 350 kts | 278° |
| 2026-05-06 02:30 | 18.28776 | -65.20949 | 11187 ft | 358 kts | 278° |
| 2026-05-06 02:30 | 18.29166 | -65.23551 | 11753 ft | 361 kts | 279° |
| 2026-05-06 02:30 | 18.29610 | -65.26118 | 11934 ft | 361 kts | 281° |
| 2026-05-06 02:31 | 18.30138 | -65.28744 | 11997 ft | 377 kts | 282° |
| 2026-05-06 02:31 | 18.30730 | -65.31487 | 11996 ft | 389 kts | 283° |
| 2026-05-06 02:31 | 18.31343 | -65.34273 | 11994 ft | 392 kts | 283° |
| 2026-05-06 02:31 | 18.31951 | -65.37067 | 11993 ft | 392 kts | 282° |
| 2026-05-06 02:32 | 18.32546 | -65.39867 | 11996 ft | 392 kts | 282° |
| 2026-05-06 02:32 | 18.33128 | -65.42676 | 11996 ft | 393 kts | 282° |
| 2026-05-06 02:32 | 18.33705 | -65.45485 | 11995 ft | 393 kts | 282° |
| 2026-05-06 02:32 | 18.34283 | -65.48296 | 11996 ft | 394 kts | 282° |
| 2026-05-06 02:33 | 18.34854 | -65.51073 | 11989 ft | 393 kts | 282° |
| 2026-05-06 02:33 | 18.35244 | -65.52972 | 11990 ft | 393 kts | 282° |
| 2026-05-06 02:33 | 18.36583 | -65.59504 | 11994 ft | 393 kts | 282° |
| 2026-05-06 02:34 | 18.37160 | -65.62317 | 12002 ft | 393 kts | 282° |
| 2026-05-06 02:34 | 18.37735 | -65.65130 | 12009 ft | 393 kts | 282° |
| 2026-05-06 02:34 | 18.38306 | -65.67930 | 11996 ft | 384 kts | 282° |
| 2026-05-06 02:34 | 18.38850 | -65.70596 | 11994 ft | 362 kts | 282° |
| 2026-05-06 02:35 | 18.39358 | -65.73084 | 12000 ft | 343 kts | 282° |
| 2026-05-06 02:35 | 18.39714 | -65.75495 | 11999 ft | 325 kts | 273° |
| 2026-05-06 02:35 | 18.39713 | -65.77821 | 11943 ft | 312 kts | 264° |
| 2026-05-06 02:35 | 18.39391 | -65.80034 | 11823 ft | 301 kts | 258° |
| 2026-05-06 02:36 | 18.38985 | -65.82159 | 11451 ft | 293 kts | 258° |
| 2026-05-06 02:36 | 18.38594 | -65.84253 | 10895 ft | 291 kts | 258° |
| 2026-05-06 02:36 | 18.38210 | -65.86330 | 10491 ft | 284 kts | 258° |
| 2026-05-06 02:36 | 18.37826 | -65.88404 | 10377 ft | 292 kts | 257° |
| 2026-05-06 02:37 | 18.37435 | -65.90505 | 10254 ft | 292 kts | 258° |
| 2026-05-06 02:37 | 18.37050 | -65.92575 | 10129 ft | 292 kts | 258° |
| 2026-05-06 02:37 | 18.36657 | -65.94669 | 9991 ft | 290 kts | 258° |
| 2026-05-06 02:37 | 18.36293 | -65.96787 | 9433 ft | 298 kts | 264° |
| 2026-05-06 02:38 | 18.36278 | -65.98948 | 9099 ft | 297 kts | 271° |
| 2026-05-06 02:38 | 18.36335 | -66.01136 | 8640 ft | 300 kts | 271° |
| 2026-05-06 02:38 | 18.36390 | -66.03316 | 8120 ft | 297 kts | 271° |
| 2026-05-06 02:38 | 18.36445 | -66.05478 | 7491 ft | 295 kts | 271° |
| 2026-05-06 02:39 | 18.36501 | -66.07628 | 6884 ft | 293 kts | 271° |
| 2026-05-06 02:39 | 18.36553 | -66.09735 | 6287 ft | 290 kts | 271° |
| 2026-05-06 02:39 | 18.36609 | -66.11851 | 5682 ft | 288 kts | 271° |
| 2026-05-06 02:39 | 18.36663 | -66.13931 | 5332 ft | 277 kts | 271° |
| 2026-05-06 02:40 | 18.36723 | -66.15886 | 5190 ft | 258 kts | 275° |
| 2026-05-06 02:40 | 18.37238 | -66.17662 | 4620 ft | 257 kts | 304° |
| 2026-05-06 02:40 | 18.38526 | -66.18906 | 4146 ft | 248 kts | 336° |
| 2026-05-06 02:40 | 18.40109 | -66.19361 | 3981 ft | 226 kts | 3° |
| 2026-05-06 02:41 | 18.41562 | -66.18984 | 3875 ft | 209 kts | 37° |
| 2026-05-06 02:41 | 18.42478 | -66.17936 | 3806 ft | 194 kts | 60° |
| 2026-05-06 02:41 | 18.43132 | -66.16726 | 3629 ft | 188 kts | 72° |
| 2026-05-06 02:41 | 18.43382 | -66.15399 | 3374 ft | 184 kts | 91° |
| 2026-05-06 02:42 | 18.43378 | -66.14056 | 3110 ft | 183 kts | 92° |